createdAt,value
2019-01-26T00:01:38.851Z,-4.30
2019-01-26T00:05:45.382Z,-4.30
2019-01-26T00:09:51.121Z,-4.30
2019-01-26T00:13:58.630Z,-4.20
2019-01-26T00:18:05.558Z,-4.10
2019-01-26T00:22:13.198Z,-4.20
2019-01-26T00:26:21.107Z,-4.40
2019-01-26T00:30:31.691Z,-4.50
2019-01-26T00:34:38.617Z,-4.40
2019-01-26T00:38:45.140Z,-4.40
2019-01-26T00:42:51.691Z,-4.20
2019-01-26T00:47:01.659Z,-4.30
2019-01-26T00:51:09.587Z,-4.20
2019-01-26T00:55:16.575Z,-4.10
2019-01-26T00:59:29.470Z,-4.10
2019-01-26T01:03:38.809Z,-4.10
2019-01-26T01:07:51.168Z,-4.20
2019-01-26T01:11:58.155Z,-4.30
2019-01-26T01:16:08.098Z,-4.30
2019-01-26T01:20:20.802Z,-4.10
2019-01-26T01:24:24.324Z,-4.20
2019-01-26T01:28:52.577Z,-4.20
2019-01-26T01:32:59.045Z,-4.20
2019-01-26T01:41:16.282Z,-3.90
2019-01-26T01:45:31.682Z,-4.00
2019-01-26T01:49:39.620Z,-3.90
2019-01-26T01:53:47.741Z,-3.90
2019-01-26T01:57:54.266Z,-4.00
2019-01-26T02:02:00.804Z,-3.90
2019-01-26T02:06:10.455Z,-3.90
2019-01-26T02:10:19.340Z,-3.90
2019-01-26T02:14:47.233Z,-3.80
2019-01-26T02:18:57.857Z,-3.70
2019-01-26T02:23:05.252Z,-3.90
2019-01-26T02:27:12.441Z,-3.90
2019-01-26T02:31:18.812Z,-4.10
2019-01-26T02:35:27.296Z,-4.00
2019-01-26T02:39:34.420Z,-4.00
2019-01-26T02:43:44.849Z,-3.90
2019-01-26T02:47:51.800Z,-3.90
2019-01-26T02:51:59.681Z,-3.80
2019-01-26T02:56:26.357Z,-3.80
2019-01-26T03:00:35.172Z,-3.80
2019-01-26T03:09:30.408Z,-3.70
2019-01-26T03:13:36.904Z,-3.70
2019-01-26T03:17:45.257Z,-3.60
2019-01-26T03:21:53.113Z,-3.40
2019-01-26T03:25:59.779Z,-3.50
2019-01-26T03:30:27.943Z,-3.50
2019-01-26T03:34:35.011Z,-3.60
2019-01-26T03:38:43.804Z,-3.80
2019-01-26T03:42:51.120Z,-3.60
2019-01-26T03:46:57.627Z,-3.40
2019-01-26T03:51:04.943Z,-3.50
2019-01-26T03:55:13.563Z,-3.40
2019-01-26T03:59:20.637Z,-3.40
2019-01-26T04:04:05.904Z,-3.40
2019-01-26T04:08:12.688Z,-3.60
2019-01-26T04:12:18.995Z,-3.60
2019-01-26T04:16:25.415Z,-3.50
2019-01-26T04:20:32.019Z,-3.60
2019-01-26T04:24:40.101Z,-3.50
2019-01-26T04:28:46.409Z,-3.60
2019-01-26T04:32:52.884Z,-3.60
2019-01-26T04:36:59.210Z,-3.50
2019-01-26T04:41:06.082Z,-3.50
2019-01-26T04:45:15.021Z,-3.30
2019-01-26T04:49:21.348Z,-3.20
2019-01-26T04:53:27.776Z,-3.20
2019-01-26T04:57:35.740Z,-3.30
2019-01-26T05:01:42.041Z,-3.10
2019-01-26T05:05:48.565Z,-3.00
2019-01-26T05:09:54.885Z,-3.10
2019-01-26T05:14:02.087Z,-3.20
2019-01-26T05:18:08.366Z,-3.30
2019-01-26T05:22:14.790Z,-3.40
2019-01-26T05:26:21.164Z,-3.40
2019-01-26T05:30:30.267Z,-3.40
2019-01-26T05:34:36.659Z,-3.40
2019-01-26T05:38:43.122Z,-2.10
2019-01-26T05:42:49.509Z,-3.10
2019-01-26T05:46:56.548Z,-3.10
2019-01-26T05:51:03.186Z,-3.20
2019-01-26T05:55:09.777Z,-3.20
2019-01-26T05:59:17.133Z,-3.40
2019-01-26T06:03:23.877Z,-3.40
2019-01-26T06:07:30.406Z,-3.30
2019-01-26T06:11:37.110Z,-3.20
2019-01-26T06:15:43.416Z,-3.20
2019-01-26T06:19:49.891Z,-3.10
2019-01-26T06:23:56.275Z,-3.40
2019-01-26T06:28:02.672Z,-3.30
2019-01-26T06:32:09.264Z,-2.90
2019-01-26T06:36:17.273Z,-3.20
2019-01-26T06:40:23.623Z,-3.20
2019-01-26T06:44:29.931Z,-3.00
2019-01-26T06:48:36.372Z,-3.00
2019-01-26T06:52:43.059Z,-3.20
2019-01-26T06:56:49.407Z,-2.90
2019-01-26T07:00:56.215Z,-2.90
2019-01-26T07:05:13.340Z,-2.90
2019-01-26T07:09:20.767Z,-3.00
2019-01-26T07:13:27.096Z,-3.10
2019-01-26T07:17:33.436Z,-3.00
2019-01-26T07:21:39.792Z,-2.90
2019-01-26T07:25:46.311Z,-2.90
2019-01-26T07:29:52.612Z,-2.80
2019-01-26T07:33:59.279Z,-2.40
2019-01-26T07:42:13.999Z,-2.80
2019-01-26T07:46:20.325Z,-2.90
2019-01-26T07:50:26.903Z,-2.70
2019-01-26T07:54:33.252Z,-2.60
2019-01-26T07:58:40.508Z,-2.40
2019-01-26T08:02:48.721Z,-2.50
2019-01-26T08:07:14.655Z,-2.10
2019-01-26T08:11:21.214Z,-4.70
2019-01-26T08:15:30.512Z,-2.80
2019-01-26T08:19:40.099Z,-2.70
2019-01-26T08:23:48.563Z,-2.90
2019-01-26T08:27:55.743Z,-3.00
2019-01-26T08:32:02.957Z,-3.00
2019-01-26T08:36:11.762Z,-3.20
2019-01-26T08:40:21.761Z,-3.20
2019-01-26T08:44:29.557Z,-3.10
2019-01-26T08:48:38.377Z,-2.40
2019-01-26T08:52:45.645Z,-2.70
2019-01-26T08:56:52.066Z,-2.70
2019-01-26T09:01:01.311Z,-2.80
2019-01-26T09:05:11.460Z,-2.90
2019-01-26T09:09:19.431Z,-3.10
2019-01-26T09:13:26.405Z,-2.90
2019-01-26T09:17:32.859Z,-2.80
2019-01-26T09:22:39.315Z,-2.50
2019-01-26T09:26:45.716Z,-1.80
2019-01-26T09:30:55.241Z,-1.90
2019-01-26T09:35:05.482Z,-2.00
2019-01-26T09:39:13.273Z,-2.10
2019-01-26T09:43:19.918Z,-2.10
2019-01-26T09:47:25.683Z,-2.10
2019-01-26T09:51:32.093Z,-1.90
2019-01-26T09:55:39.689Z,-1.50
2019-01-26T09:59:45.994Z,-1.00
2019-01-26T10:03:53.840Z,-0.90
2019-01-26T10:08:02.716Z,-1.00
2019-01-26T10:12:09.112Z,-1.30
2019-01-26T10:16:15.617Z,-1.30
2019-01-26T10:20:23.925Z,-1.50
2019-01-26T10:24:30.400Z,-1.40
2019-01-26T10:28:37.727Z,-1.30
2019-01-26T10:32:44.412Z,-1.50
2019-01-26T10:36:55.513Z,-1.20
2019-01-26T10:41:21.981Z,-0.90
2019-01-26T10:45:30.907Z,-1.00
2019-01-26T10:49:39.410Z,-0.90
2019-01-26T10:53:45.761Z,-0.60
2019-01-26T10:57:52.720Z,-0.60
2019-01-26T11:02:02.212Z,-0.10
2019-01-26T11:06:08.571Z,0.00
2019-01-26T11:10:17.777Z,0.10
2019-01-26T11:14:24.164Z,0.20
2019-01-26T11:18:30.805Z,0.40
2019-01-26T11:22:37.092Z,0.60
2019-01-26T11:26:49.397Z,0.50
2019-01-26T11:30:54.172Z,0.90
2019-01-26T11:35:04.178Z,1.20
2019-01-26T11:39:11.893Z,1.20
2019-01-26T11:43:18.424Z,1.20
2019-01-26T11:47:26.713Z,0.80
2019-01-26T11:51:52.754Z,-0.10
2019-01-26T11:56:09.603Z,0.10
2019-01-26T12:00:38.792Z,0.10
2019-01-26T12:04:47.925Z,-0.10
2019-01-26T12:08:54.903Z,-0.30
2019-01-26T12:13:04.503Z,-0.60
2019-01-26T12:21:19.724Z,-0.50
2019-01-26T12:25:29.574Z,-0.40
2019-01-26T12:29:36.253Z,-0.40
2019-01-26T12:33:42.685Z,-0.10
2019-01-26T12:37:49.347Z,-0.10
2019-01-26T12:41:57.553Z,-4.30
2019-01-26T12:46:05.579Z,-0.50
2019-01-26T12:50:13.185Z,-0.50
2019-01-26T12:54:19.616Z,-0.80
2019-01-26T12:58:27.667Z,-0.70
2019-01-26T13:02:33.977Z,-0.90
2019-01-26T13:06:40.429Z,-1.10
2019-01-26T13:10:49.430Z,-1.20
2019-01-26T13:14:57.188Z,-1.10
2019-01-26T13:19:04.575Z,-0.90
2019-01-26T13:23:12.053Z,-0.80
2019-01-26T13:27:18.443Z,-1.00
2019-01-26T13:31:26.074Z,-1.10
2019-01-26T13:35:32.465Z,-1.00
2019-01-26T13:39:38.977Z,-0.90
2019-01-26T13:44:06.576Z,-0.80
2019-01-26T13:48:13.092Z,-0.90
2019-01-26T13:52:19.467Z,-0.80
2019-01-26T13:56:25.402Z,-0.90
2019-01-26T14:00:32.310Z,-1.00
2019-01-26T14:04:40.015Z,-0.80
2019-01-26T14:08:45.713Z,-0.90
2019-01-26T14:12:52.130Z,-0.80
2019-01-26T14:16:59.418Z,-0.80
2019-01-26T14:21:06.190Z,-5.20
2019-01-26T14:25:12.783Z,-1.10
2019-01-26T14:33:28.086Z,-1.30
2019-01-26T14:37:34.897Z,-1.30
2019-01-26T14:41:40.828Z,-1.30
2019-01-26T14:45:47.252Z,-1.30
2019-01-26T14:49:58.414Z,-1.50
2019-01-26T14:54:04.371Z,-2.00
2019-01-26T14:58:10.724Z,-1.50
2019-01-26T15:02:17.091Z,-1.80
2019-01-26T15:06:27.608Z,-2.10
2019-01-26T15:10:40.435Z,-2.10
2019-01-26T15:14:46.882Z,-2.20
2019-01-26T15:18:55.229Z,-2.20
2019-01-26T15:23:04.768Z,-2.20
2019-01-26T15:27:11.627Z,-2.30
2019-01-26T15:31:18.044Z,-2.50
2019-01-26T15:36:09.193Z,-2.30
2019-01-26T15:40:14.213Z,-2.50
2019-01-26T15:44:22.876Z,-2.30
2019-01-26T15:48:29.240Z,-2.10
2019-01-26T15:52:38.047Z,-1.80
2019-01-26T15:56:44.545Z,-1.80
2019-01-26T16:00:52.016Z,-1.60
2019-01-26T16:05:00.582Z,-1.90
2019-01-26T16:09:09.056Z,-2.10
2019-01-26T16:13:15.572Z,-2.20
2019-01-26T16:17:24.418Z,-2.00
2019-01-26T16:21:32.005Z,-2.00
2019-01-26T16:25:38.763Z,-2.00
2019-01-26T16:29:45.736Z,-1.80
2019-01-26T16:33:53.892Z,-1.90
2019-01-26T16:38:00.205Z,-2.20
2019-01-26T16:42:07.537Z,-2.20
2019-01-26T16:46:13.937Z,-2.40
2019-01-26T16:50:27.851Z,-2.50
2019-01-26T16:54:32.974Z,-2.60
2019-01-26T17:02:50.275Z,-2.50
2019-01-26T17:06:57.360Z,-2.40
2019-01-26T17:11:04.369Z,-2.30
2019-01-26T17:15:14.993Z,-2.40
2019-01-26T17:19:23.845Z,-2.20
2019-01-26T17:23:32.851Z,-2.20
2019-01-26T17:27:39.139Z,-2.40
2019-01-26T17:31:46.827Z,-2.30
2019-01-26T17:35:53.178Z,-2.10
2019-01-26T17:40:01.944Z,-2.00
2019-01-26T17:44:08.587Z,-1.70
2019-01-26T17:48:14.922Z,-1.70
2019-01-26T17:52:21.294Z,-2.00
2019-01-26T17:56:28.307Z,-1.80
2019-01-26T18:05:03.272Z,-2.00
2019-01-26T18:13:19.080Z,-1.90
2019-01-26T18:17:25.370Z,-1.60
2019-01-26T18:21:33.870Z,-1.90
2019-01-26T18:25:42.803Z,-1.80
2019-01-26T18:29:52.742Z,-1.80
2019-01-26T18:34:00.808Z,-1.80
2019-01-26T18:38:07.769Z,-1.90
2019-01-26T18:42:15.415Z,-1.80
2019-01-26T18:46:24.465Z,-1.80
2019-01-26T18:50:34.043Z,-2.20
2019-01-26T18:54:44.851Z,-2.30
2019-01-26T18:58:51.229Z,-2.40
2019-01-26T19:03:11.397Z,-2.60
2019-01-26T19:07:17.850Z,-2.60
2019-01-26T19:11:24.323Z,-2.70
2019-01-26T19:15:31.106Z,-2.70
2019-01-26T19:19:38.641Z,-2.70
2019-01-26T19:23:46.023Z,-2.40
2019-01-26T19:27:52.600Z,-2.50
2019-01-26T19:31:59.694Z,-2.30
2019-01-26T19:36:06.605Z,-2.30
2019-01-26T19:40:18.739Z,-2.20
2019-01-26T19:44:25.209Z,-2.20
2019-01-26T19:48:32.145Z,-2.20
2019-01-26T19:52:40.154Z,-2.50
2019-01-26T19:56:46.596Z,-2.40
2019-01-26T20:00:52.986Z,-2.30
2019-01-26T20:04:58.815Z,-2.30
2019-01-26T20:09:09.655Z,-2.40
2019-01-26T20:13:17.846Z,-2.40
2019-01-26T20:17:27.370Z,-2.60
2019-01-26T20:21:34.471Z,-2.30
2019-01-26T20:25:42.544Z,-2.40
2019-01-26T20:29:48.172Z,-2.20
2019-01-26T20:33:54.615Z,-2.10
2019-01-26T20:38:01.005Z,-2.10
2019-01-26T20:42:09.028Z,-2.00
2019-01-26T20:46:35.029Z,-1.90
2019-01-26T20:50:41.497Z,-1.90
2019-01-26T20:54:47.858Z,-1.90
2019-01-26T20:58:57.278Z,-1.90
2019-01-26T21:03:05.516Z,-2.00
2019-01-26T21:07:13.583Z,-2.20
2019-01-26T21:11:19.930Z,-2.10
2019-01-26T21:15:27.308Z,-1.70
2019-01-26T21:19:33.691Z,-2.30
2019-01-26T21:23:41.891Z,-2.50
2019-01-26T21:27:48.180Z,-2.70
2019-01-26T21:31:55.923Z,-2.70
2019-01-26T21:36:02.317Z,-2.80
2019-01-26T21:40:14.734Z,-2.80
2019-01-26T21:44:21.055Z,-2.70
2019-01-26T21:48:27.823Z,-2.80
2019-01-26T21:52:40.784Z,-2.70
2019-01-26T21:56:43.468Z,-2.50
2019-01-26T22:00:50.453Z,-2.50
2019-01-26T22:04:58.505Z,-3.10
2019-01-26T22:09:08.468Z,-2.90
2019-01-26T22:13:14.888Z,-3.00
2019-01-26T22:17:23.823Z,-5.70
2019-01-26T22:21:30.647Z,-3.20
2019-01-26T22:25:38.436Z,-3.30
2019-01-26T22:29:45.006Z,-3.50
2019-01-26T22:33:52.106Z,-3.50
2019-01-26T22:38:00.729Z,-3.80
2019-01-26T22:42:08.557Z,-4.00
2019-01-26T22:46:14.990Z,-4.10
2019-01-26T22:50:21.470Z,-3.80
2019-01-26T22:54:28.216Z,-4.50
2019-01-26T22:58:34.548Z,-4.30
2019-01-26T23:02:42.911Z,-4.10
2019-01-26T23:07:05.686Z,-4.20
2019-01-26T23:11:29.652Z,-4.10
2019-01-26T23:15:49.620Z,-4.10
2019-01-26T23:20:35.369Z,-3.60
2019-01-26T23:25:08.165Z,-3.50
2019-01-26T23:29:29.014Z,-3.50
2019-01-26T23:33:36.475Z,-3.30
2019-01-26T23:37:42.834Z,-3.30
2019-01-26T23:41:50.146Z,-3.20
2019-01-26T23:45:58.391Z,-3.40
2019-01-26T23:50:06.416Z,-3.40
2019-01-26T23:54:13.116Z,-3.60
2019-01-26T23:58:19.707Z,-3.40
